createdAt,value
2023-05-01T00:00:48.089Z,11.50
2023-05-01T00:01:48.096Z,11.00
2023-05-01T00:02:48.221Z,11.30
2023-05-01T00:03:48.304Z,10.80
2023-05-01T00:04:48.057Z,10.90
2023-05-01T00:05:48.044Z,11.60
2023-05-01T00:06:48.088Z,11.50
2023-05-01T00:07:48.034Z,11.10
2023-05-01T00:08:47.979Z,11.70
2023-05-01T00:09:47.985Z,11.30
2023-05-01T00:10:47.953Z,11.70
2023-05-01T00:11:47.950Z,11.20
2023-05-01T00:12:47.935Z,10.90
2023-05-01T00:13:47.930Z,10.80
2023-05-01T00:14:47.899Z,10.80
2023-05-01T00:15:47.893Z,10.80
2023-05-01T00:16:48.031Z,11.10
2023-05-01T00:17:47.992Z,11.10
2023-05-01T00:18:47.851Z,10.40
2023-05-01T00:19:47.846Z,10.90
2023-05-01T00:20:47.834Z,10.80
2023-05-01T00:21:47.849Z,10.90
2023-05-01T00:22:47.829Z,10.50
2023-05-01T00:23:47.791Z,10.60
2023-05-01T00:24:47.773Z,10.50
2023-05-01T00:25:47.778Z,10.90
2023-05-01T00:26:47.754Z,11.00
2023-05-01T00:27:47.776Z,10.50
2023-05-01T00:28:47.760Z,10.30
2023-05-01T00:29:47.738Z,10.50
2023-05-01T00:30:47.693Z,9.90
2023-05-01T00:31:47.774Z,10.50
2023-05-01T00:32:47.712Z,9.60
2023-05-01T00:33:47.668Z,10.20
2023-05-01T00:34:47.641Z,9.70
2023-05-01T00:35:47.816Z,10.00
2023-05-01T00:36:49.346Z,9.70
2023-05-01T00:37:47.635Z,9.80
2023-05-01T00:38:47.604Z,10.40
2023-05-01T00:39:47.592Z,10.70
2023-05-01T00:40:47.573Z,10.80
2023-05-01T00:41:47.566Z,10.40
2023-05-01T00:42:47.567Z,10.30
2023-05-01T00:43:47.539Z,10.10
2023-05-01T00:44:47.514Z,10.60
2023-05-01T00:45:47.552Z,10.80
2023-05-01T00:46:47.483Z,10.60
2023-05-01T00:47:47.537Z,10.50
2023-05-01T00:48:47.460Z,10.90
2023-05-01T00:49:47.448Z,10.40
2023-05-01T00:50:47.439Z,10.80
2023-05-01T00:51:47.420Z,11.10
2023-05-01T00:52:47.539Z,10.90
2023-05-01T00:53:47.385Z,10.30
2023-05-01T00:54:47.388Z,10.70
2023-05-01T00:55:47.432Z,10.10
2023-05-01T00:56:47.465Z,10.50
2023-05-01T00:57:47.388Z,10.50
2023-05-01T00:58:47.432Z,10.50
2023-05-01T00:59:47.378Z,10.50
2023-05-01T01:00:47.389Z,10.50
2023-05-01T01:01:47.379Z,10.70
2023-05-01T01:02:47.279Z,10.30
2023-05-01T01:03:47.292Z,10.00
2023-05-01T01:04:47.304Z,10.10
2023-05-01T01:05:47.242Z,10.20
2023-05-01T01:06:47.373Z,10.00
2023-05-01T01:07:47.209Z,9.70
2023-05-01T01:08:47.241Z,9.50
2023-05-01T01:09:47.196Z,9.30
2023-05-01T01:10:47.168Z,10.60
2023-05-01T01:11:47.165Z,9.50
2023-05-01T01:12:47.142Z,9.70
2023-05-01T01:13:47.177Z,8.90
2023-05-01T01:14:47.118Z,9.60
2023-05-01T01:15:47.112Z,9.20
2023-05-01T01:16:47.159Z,9.30
2023-05-01T01:17:47.209Z,9.40
2023-05-01T01:18:47.115Z,9.20
2023-05-01T01:19:47.046Z,9.00
2023-05-01T01:20:47.059Z,9.00
2023-05-01T01:21:47.031Z,9.30
2023-05-01T01:22:47.017Z,9.30
2023-05-01T01:23:47.024Z,8.80
2023-05-01T01:24:46.986Z,8.80
2023-05-01T01:25:46.988Z,8.70
2023-05-01T01:26:46.964Z,9.10
2023-05-01T01:27:46.954Z,8.70
2023-05-01T01:28:46.963Z,9.00
2023-05-01T01:29:46.924Z,8.90
2023-05-01T01:30:46.930Z,8.60
2023-05-01T01:31:46.898Z,9.20
2023-05-01T01:32:46.938Z,8.70
2023-05-01T01:33:46.890Z,8.50
2023-05-01T01:34:46.851Z,8.40
2023-05-01T01:35:46.851Z,8.20
2023-05-01T01:36:46.831Z,8.60
2023-05-01T01:37:46.831Z,9.00
2023-05-01T01:38:46.841Z,8.50
2023-05-01T01:39:46.812Z,9.00
2023-05-01T01:40:46.772Z,7.90
2023-05-01T01:41:46.763Z,8.10
2023-05-01T01:42:46.772Z,8.30
2023-05-01T01:43:46.876Z,7.70
2023-05-01T01:44:46.722Z,8.00
2023-05-01T01:45:46.730Z,7.70
2023-05-01T01:46:46.729Z,7.50
2023-05-01T01:47:46.714Z,8.00
2023-05-01T01:48:46.708Z,7.60
2023-05-01T01:49:46.666Z,8.10
2023-05-01T01:50:46.692Z,7.20
2023-05-01T01:51:46.631Z,7.20
2023-05-01T01:52:46.637Z,7.30
2023-05-01T01:53:46.625Z,6.90
2023-05-01T01:54:46.599Z,6.70
2023-05-01T01:55:46.573Z,6.60
2023-05-01T01:56:46.591Z,7.30
2023-05-01T01:57:46.585Z,7.10
2023-05-01T01:58:46.559Z,6.90
2023-05-01T01:59:46.538Z,6.50
2023-05-01T02:00:46.517Z,6.90
2023-05-01T02:01:46.520Z,7.10
2023-05-01T02:02:46.564Z,6.90
2023-05-01T02:03:46.581Z,6.60
2023-05-01T02:04:46.469Z,6.90
2023-05-01T02:05:46.446Z,6.10
2023-05-01T02:06:46.592Z,6.30
2023-05-01T02:07:46.418Z,6.60
2023-05-01T02:08:46.448Z,6.30
2023-05-01T02:09:46.414Z,6.60
2023-05-01T02:10:46.394Z,6.70
2023-05-01T02:11:46.383Z,6.90
2023-05-01T02:12:46.376Z,6.40
2023-05-01T02:13:46.389Z,6.70
2023-05-01T02:14:46.334Z,6.30
2023-05-01T02:15:46.337Z,6.30
2023-05-01T02:16:46.300Z,6.50
2023-05-01T02:17:46.348Z,7.10
2023-05-01T02:18:46.368Z,6.00
2023-05-01T02:19:46.273Z,6.10
2023-05-01T02:20:46.255Z,6.40
2023-05-01T02:21:46.244Z,6.00
2023-05-01T02:22:46.234Z,5.50
2023-05-01T02:23:46.241Z,5.80
2023-05-01T02:24:46.218Z,5.70
2023-05-01T02:25:46.178Z,5.80
2023-05-01T02:26:46.187Z,5.80
2023-05-01T02:27:46.173Z,5.60
2023-05-01T02:28:46.213Z,5.90
2023-05-01T02:29:46.143Z,5.80
2023-05-01T02:30:46.123Z,5.10
2023-05-01T02:31:46.135Z,5.20
2023-05-01T02:32:46.149Z,5.90
2023-05-01T02:33:46.137Z,5.70
2023-05-01T02:34:46.157Z,5.60
2023-05-01T02:35:46.060Z,6.00
2023-05-01T02:36:46.065Z,5.80
2023-05-01T02:37:46.036Z,5.60
2023-05-01T02:38:46.028Z,5.70
2023-05-01T02:39:46.021Z,5.20
2023-05-01T02:40:46.003Z,5.50
2023-05-01T02:41:45.981Z,5.90
2023-05-01T02:42:45.964Z,5.70
2023-05-01T02:43:45.978Z,6.00
2023-05-01T02:44:45.942Z,5.50
2023-05-01T02:45:46.095Z,5.90
2023-05-01T02:46:45.976Z,5.70
2023-05-01T02:47:45.929Z,6.40
2023-05-01T02:48:45.927Z,6.00
2023-05-01T02:49:45.888Z,5.60
2023-05-01T02:50:45.876Z,5.60
2023-05-01T02:51:45.847Z,5.80
2023-05-01T02:52:45.821Z,5.60
2023-05-01T02:53:45.825Z,5.80
2023-05-01T02:54:45.868Z,5.60
2023-05-01T02:55:45.827Z,5.60
2023-05-01T02:56:45.821Z,6.10
2023-05-01T02:57:45.780Z,6.30
2023-05-01T02:58:45.768Z,5.70
2023-05-01T02:59:45.804Z,5.90
2023-05-01T03:00:45.821Z,5.40
2023-05-01T03:01:45.759Z,6.10
2023-05-01T03:02:45.779Z,5.10
2023-05-01T03:03:45.802Z,6.00
2023-05-01T03:04:45.774Z,5.70
2023-05-01T03:05:45.699Z,5.80
2023-05-01T03:06:45.715Z,5.70
2023-05-01T03:07:45.636Z,5.40
2023-05-01T03:08:45.723Z,5.60
2023-05-01T03:09:45.609Z,5.90
2023-05-01T03:10:45.603Z,5.50
2023-05-01T03:11:45.597Z,5.70
2023-05-01T03:12:45.568Z,5.80
2023-05-01T03:13:45.571Z,5.70
2023-05-01T03:14:45.554Z,6.10
2023-05-01T03:15:45.564Z,5.40
2023-05-01T03:16:45.577Z,5.10
2023-05-01T03:17:45.533Z,5.30
2023-05-01T03:18:45.540Z,5.20
2023-05-01T03:19:45.478Z,5.00
2023-05-01T03:20:45.481Z,5.50
2023-05-01T03:21:45.451Z,5.10
2023-05-01T03:22:45.435Z,5.00
2023-05-01T03:23:45.448Z,5.10
2023-05-01T03:24:45.435Z,5.30
2023-05-01T03:25:45.390Z,5.40
2023-05-01T03:26:45.390Z,4.90
2023-05-01T03:27:45.373Z,4.90
2023-05-01T03:28:45.386Z,4.80
2023-05-01T03:29:45.335Z,4.80
2023-05-01T03:30:45.325Z,5.30
2023-05-01T03:31:45.357Z,5.40
2023-05-01T03:32:45.407Z,5.00
2023-05-01T03:33:45.315Z,4.90
2023-05-01T03:34:45.304Z,5.20
2023-05-01T03:35:45.284Z,5.20
2023-05-01T03:36:45.251Z,5.00
2023-05-01T03:37:45.249Z,4.50
2023-05-01T03:38:45.242Z,4.70
2023-05-01T03:39:45.229Z,4.40
2023-05-01T03:40:45.200Z,4.80
2023-05-01T03:41:45.181Z,4.30
2023-05-01T03:42:45.131Z,4.50
2023-05-01T03:43:45.112Z,5.00
2023-05-01T03:44:45.100Z,4.80
2023-05-01T03:45:45.197Z,5.00
2023-05-01T03:46:51.066Z,4.70
2023-05-01T03:47:45.071Z,5.00
2023-05-01T03:48:45.040Z,4.90
2023-05-01T03:49:45.040Z,4.70
2023-05-01T03:50:45.000Z,4.70
2023-05-01T03:51:44.996Z,4.60
2023-05-01T03:52:44.983Z,4.80
2023-05-01T03:53:44.968Z,5.00
2023-05-01T03:54:45.007Z,4.40
2023-05-01T03:55:44.971Z,4.60
2023-05-01T03:56:44.944Z,4.90
2023-05-01T03:57:44.915Z,4.80
2023-05-01T03:58:44.913Z,5.00
2023-05-01T03:59:44.898Z,4.60
2023-05-01T04:00:44.897Z,5.00
2023-05-01T04:01:44.941Z,5.20
2023-05-01T04:02:45.020Z,4.90
2023-05-01T04:03:44.931Z,4.60
2023-05-01T04:04:45.244Z,4.40
2023-05-01T04:05:44.814Z,4.70
2023-05-01T04:06:44.916Z,4.30
2023-05-01T04:07:44.798Z,4.50
2023-05-01T04:08:44.772Z,4.80
2023-05-01T04:09:44.803Z,4.20
2023-05-01T04:10:44.754Z,4.90
2023-05-01T04:11:44.735Z,4.60
2023-05-01T04:12:44.970Z,4.40
2023-05-01T04:13:44.705Z,4.50
2023-05-01T04:14:44.731Z,4.80
2023-05-01T04:15:44.724Z,4.70
2023-05-01T04:16:44.688Z,4.50
2023-05-01T04:17:44.691Z,4.40
2023-05-01T04:18:44.651Z,4.80
2023-05-01T04:19:44.641Z,4.30
2023-05-01T04:20:44.616Z,4.40
2023-05-01T04:21:44.600Z,4.80
2023-05-01T04:22:44.611Z,4.30
2023-05-01T04:23:44.582Z,4.60
2023-05-01T04:24:44.580Z,4.40
2023-05-01T04:25:44.566Z,4.30
2023-05-01T04:26:44.545Z,4.20
2023-05-01T04:27:44.520Z,4.20
2023-05-01T04:28:44.520Z,4.70
2023-05-01T04:29:44.518Z,4.30
2023-05-01T04:30:44.497Z,4.10
2023-05-01T04:31:44.485Z,4.40
2023-05-01T04:32:44.493Z,4.50
2023-05-01T04:33:44.441Z,4.60
2023-05-01T04:34:44.453Z,4.40
2023-05-01T04:35:44.410Z,4.30
2023-05-01T04:36:44.408Z,4.50
2023-05-01T04:37:44.439Z,4.50
2023-05-01T04:38:44.384Z,4.10
2023-05-01T04:39:44.389Z,4.60
2023-05-01T04:40:44.365Z,4.40
2023-05-01T04:41:44.335Z,4.10
2023-05-01T04:42:44.325Z,4.40
2023-05-01T04:43:44.308Z,4.10
2023-05-01T04:44:44.326Z,4.30
2023-05-01T04:45:44.321Z,4.90
2023-05-01T04:46:44.323Z,4.20
2023-05-01T04:47:44.322Z,4.20
2023-05-01T04:48:44.244Z,4.50
2023-05-01T04:49:44.278Z,4.50
2023-05-01T04:50:44.218Z,4.30
2023-05-01T04:51:44.209Z,4.40
2023-05-01T04:52:44.205Z,4.40
2023-05-01T04:53:44.182Z,4.30
2023-05-01T04:54:44.337Z,4.20
2023-05-01T04:55:44.149Z,4.30
2023-05-01T04:56:44.144Z,4.50
2023-05-01T04:57:44.130Z,4.50
2023-05-01T04:58:44.135Z,4.40
2023-05-01T04:59:44.097Z,4.10
2023-05-01T05:00:44.178Z,4.60
2023-05-01T05:01:44.093Z,4.60
2023-05-01T05:02:44.203Z,4.20
2023-05-01T05:03:45.029Z,4.50
2023-05-01T05:04:44.040Z,4.30
2023-05-01T05:05:44.030Z,3.90
2023-05-01T05:06:44.027Z,4.00
2023-05-01T05:07:43.988Z,4.40
2023-05-01T05:08:43.987Z,4.20
2023-05-01T05:09:43.962Z,4.30
2023-05-01T05:10:43.980Z,4.30
2023-05-01T05:11:43.937Z,4.00
2023-05-01T05:12:43.936Z,4.10
2023-05-01T05:13:43.907Z,3.90
2023-05-01T05:14:43.946Z,4.40
2023-05-01T05:15:43.911Z,4.20
2023-05-01T05:16:43.949Z,4.30
2023-05-01T05:17:43.913Z,4.20
2023-05-01T05:18:43.853Z,4.40
2023-05-01T05:19:43.840Z,4.30
2023-05-01T05:20:43.849Z,4.30
2023-05-01T05:21:43.814Z,4.30
2023-05-01T05:22:43.817Z,4.40
2023-05-01T05:23:43.782Z,4.00
2023-05-01T05:24:43.819Z,4.30
2023-05-01T05:25:43.792Z,4.60
2023-05-01T05:26:43.750Z,4.40
2023-05-01T05:27:43.740Z,4.10
2023-05-01T05:28:43.714Z,4.20
2023-05-01T05:29:43.709Z,4.20
2023-05-01T05:30:43.713Z,3.90
2023-05-01T05:31:43.721Z,4.00
2023-05-01T05:32:43.758Z,4.20
2023-05-01T05:33:43.648Z,4.50
2023-05-01T05:34:43.641Z,4.10
2023-05-01T05:35:43.633Z,4.20
2023-05-01T05:36:43.610Z,4.10
2023-05-01T05:37:45.951Z,4.30
2023-05-01T05:38:43.598Z,4.10
2023-05-01T05:39:43.569Z,4.10
2023-05-01T05:40:43.582Z,3.90
2023-05-01T05:41:43.546Z,4.10
2023-05-01T05:42:43.559Z,4.00
2023-05-01T05:43:43.529Z,4.00
2023-05-01T05:44:43.512Z,4.30
2023-05-01T05:45:43.552Z,4.00
2023-05-01T05:46:43.488Z,4.20
2023-05-01T05:47:43.525Z,3.90
2023-05-01T05:48:43.460Z,4.10
2023-05-01T05:49:43.463Z,4.00
2023-05-01T05:50:43.464Z,4.40
2023-05-01T05:51:43.414Z,4.00
2023-05-01T05:52:43.402Z,4.20
2023-05-01T05:53:43.392Z,4.10
2023-05-01T05:54:43.384Z,3.70
2023-05-01T05:55:43.399Z,4.20
2023-05-01T05:56:43.346Z,4.10
2023-05-01T05:57:43.339Z,4.10
2023-05-01T05:58:43.334Z,4.20
2023-05-01T05:59:43.308Z,3.70
2023-05-01T06:00:43.313Z,4.20
2023-05-01T06:01:43.295Z,3.80
2023-05-01T06:02:43.377Z,3.70
2023-05-01T06:03:43.301Z,4.00
2023-05-01T06:04:43.238Z,4.00
2023-05-01T06:05:43.282Z,3.90
2023-05-01T06:06:43.319Z,3.90
2023-05-01T06:07:43.210Z,4.00
2023-05-01T06:08:43.192Z,3.70
2023-05-01T06:09:43.201Z,4.00
2023-05-01T06:10:43.187Z,3.90
2023-05-01T06:11:43.193Z,3.70
2023-05-01T06:12:46.788Z,4.10
2023-05-01T06:13:43.133Z,4.20
2023-05-01T06:14:43.120Z,3.90
2023-05-01T06:15:43.164Z,3.80
2023-05-01T06:16:43.126Z,3.80
2023-05-01T06:17:43.119Z,3.70
2023-05-01T06:18:44.494Z,3.80
2023-05-01T06:19:43.061Z,4.00
2023-05-01T06:20:43.073Z,3.90
2023-05-01T06:21:43.024Z,4.10
2023-05-01T06:22:43.009Z,3.50
2023-05-01T06:23:43.002Z,3.80
2023-05-01T06:24:42.996Z,3.60
2023-05-01T06:25:43.014Z,4.00
2023-05-01T06:26:42.965Z,3.60
2023-05-01T06:27:42.962Z,3.80
2023-05-01T06:28:42.934Z,3.70
2023-05-01T06:29:42.918Z,3.70
2023-05-01T06:30:42.929Z,3.50
2023-05-01T06:31:42.934Z,3.50
2023-05-01T06:32:42.931Z,3.50
2023-05-01T06:33:42.852Z,4.00
2023-05-01T06:34:42.877Z,4.00
2023-05-01T06:35:42.839Z,3.70
2023-05-01T06:36:42.858Z,3.80
2023-05-01T06:37:42.806Z,3.80
2023-05-01T06:38:42.793Z,3.40
2023-05-01T06:39:42.781Z,3.60
2023-05-01T06:40:42.821Z,3.30
2023-05-01T06:41:42.752Z,4.30
2023-05-01T06:42:42.734Z,4.10
2023-05-01T06:43:42.740Z,3.60
2023-05-01T06:44:42.734Z,3.60
2023-05-01T06:45:42.725Z,3.70
2023-05-01T06:46:42.705Z,3.60
2023-05-01T06:47:42.689Z,3.40
2023-05-01T06:48:42.654Z,3.40
2023-05-01T06:49:42.649Z,4.00
2023-05-01T06:50:42.644Z,4.00
2023-05-01T06:51:42.625Z,3.80
2023-05-01T06:52:42.609Z,3.30
2023-05-01T06:53:42.598Z,3.60
2023-05-01T06:54:42.576Z,3.60
2023-05-01T06:55:42.576Z,3.90
2023-05-01T06:56:42.549Z,3.60
2023-05-01T06:57:42.536Z,3.70
2023-05-01T06:58:42.518Z,3.80
2023-05-01T06:59:42.508Z,3.50
2023-05-01T07:00:42.547Z,3.60
2023-05-01T07:01:42.516Z,3.50
2023-05-01T07:02:42.717Z,3.50
2023-05-01T07:03:42.534Z,3.60
2023-05-01T07:04:42.447Z,3.50
2023-05-01T07:05:42.475Z,3.30
2023-05-01T07:06:42.509Z,3.40
2023-05-01T07:07:47.556Z,3.80
2023-05-01T07:08:42.395Z,3.30
2023-05-01T07:09:42.380Z,3.40
2023-05-01T07:10:42.569Z,3.30
2023-05-01T07:11:42.372Z,2.60
2023-05-01T07:12:42.350Z,3.40
2023-05-01T07:13:42.345Z,3.10
2023-05-01T07:14:42.316Z,3.10
2023-05-01T07:15:42.330Z,3.10
2023-05-01T07:16:42.328Z,3.20
2023-05-01T07:17:42.364Z,3.10
2023-05-01T07:18:42.254Z,3.00
2023-05-01T07:19:42.245Z,3.00
2023-05-01T07:20:42.255Z,3.00
2023-05-01T07:21:42.259Z,3.10
2023-05-01T07:22:42.206Z,2.80
2023-05-01T07:23:42.208Z,2.60
2023-05-01T07:24:42.181Z,3.10
2023-05-01T07:25:42.160Z,3.20
2023-05-01T07:26:42.179Z,3.60
2023-05-01T07:27:42.147Z,3.30
2023-05-01T07:28:42.137Z,2.50
2023-05-01T07:29:42.113Z,3.40
2023-05-01T07:30:42.157Z,2.90
2023-05-01T07:31:42.197Z,2.80
2023-05-01T07:32:42.144Z,3.40
2023-05-01T07:33:42.062Z,2.90
2023-05-01T07:34:42.098Z,2.90
2023-05-01T07:35:42.080Z,2.90
2023-05-01T07:36:42.016Z,2.70
2023-05-01T07:37:42.074Z,2.90
2023-05-01T07:38:41.995Z,2.70
2023-05-01T07:39:41.976Z,2.80
2023-05-01T07:40:41.989Z,3.00
2023-05-01T07:41:41.957Z,3.10
2023-05-01T07:42:41.940Z,2.70
2023-05-01T07:43:41.928Z,3.00
2023-05-01T07:44:41.952Z,2.90
2023-05-01T07:45:41.930Z,2.80
2023-05-01T07:46:41.912Z,3.40
2023-05-01T07:47:41.893Z,3.30
2023-05-01T07:48:41.901Z,3.20
2023-05-01T07:49:41.878Z,3.20
2023-05-01T07:50:41.849Z,3.10
2023-05-01T07:51:41.820Z,2.80
2023-05-01T07:52:41.818Z,3.30
2023-05-01T07:53:41.802Z,3.00
2023-05-01T07:54:41.775Z,3.00
2023-05-01T07:55:41.816Z,2.90
2023-05-01T07:56:41.742Z,2.90
2023-05-01T07:57:41.743Z,3.30
2023-05-01T07:58:41.738Z,3.00
2023-05-01T07:59:41.716Z,2.90
2023-05-01T08:00:41.691Z,3.20
2023-05-01T08:01:41.880Z,3.00
2023-05-01T08:02:41.765Z,3.10
2023-05-01T08:03:41.780Z,2.90
2023-05-01T08:04:41.926Z,2.60
2023-05-01T08:05:41.678Z,3.00
2023-05-01T08:06:41.674Z,2.90
2023-05-01T08:07:41.663Z,2.90
2023-05-01T08:08:41.594Z,3.10
2023-05-01T08:09:41.581Z,3.50
2023-05-01T08:10:41.620Z,3.10
2023-05-01T08:11:41.565Z,3.30
2023-05-01T08:12:41.532Z,2.70
2023-05-01T08:13:41.533Z,2.90
2023-05-01T08:14:41.522Z,3.20
2023-05-01T08:15:41.544Z,3.10
2023-05-01T08:16:41.541Z,3.40
2023-05-01T08:17:41.548Z,2.80
2023-05-01T08:18:41.465Z,3.30
2023-05-01T08:19:41.464Z,3.20
2023-05-01T08:20:41.429Z,3.20
2023-05-01T08:21:41.450Z,2.70
2023-05-01T08:22:41.407Z,3.20
2023-05-01T08:23:41.405Z,3.20
2023-05-01T08:24:41.377Z,2.80
2023-05-01T08:25:41.380Z,2.90
2023-05-01T08:26:41.384Z,2.90
2023-05-01T08:27:41.340Z,2.90
2023-05-01T08:28:41.326Z,3.20
2023-05-01T08:29:41.327Z,3.00
2023-05-01T08:30:41.310Z,2.80
2023-05-01T08:31:41.350Z,3.30
2023-05-01T08:32:41.345Z,3.30
2023-05-01T08:33:41.299Z,3.00
2023-05-01T08:34:41.245Z,3.00
2023-05-01T08:35:41.285Z,3.00
2023-05-01T08:36:41.226Z,3.00
2023-05-01T08:37:41.209Z,2.90
2023-05-01T08:38:41.212Z,3.10
2023-05-01T08:39:41.195Z,3.00
2023-05-01T08:40:41.183Z,3.00
2023-05-01T08:41:41.200Z,3.00
2023-05-01T08:42:41.146Z,3.10
2023-05-01T08:43:41.129Z,3.00
2023-05-01T08:44:41.125Z,3.10
2023-05-01T08:45:41.101Z,3.10
2023-05-01T08:46:41.123Z,3.30
2023-05-01T08:47:41.130Z,3.00
2023-05-01T08:48:41.080Z,3.10
2023-05-01T08:49:41.046Z,3.10
2023-05-01T08:50:41.020Z,2.90
2023-05-01T08:51:41.051Z,2.90
2023-05-01T08:52:41.000Z,3.30
2023-05-01T08:53:41.005Z,3.40
2023-05-01T08:54:40.979Z,2.80
2023-05-01T08:55:40.984Z,2.80
2023-05-01T08:56:40.956Z,3.00
2023-05-01T08:57:40.945Z,2.90
2023-05-01T08:58:40.920Z,3.00
2023-05-01T08:59:40.924Z,2.70
2023-05-01T09:00:40.926Z,2.90
2023-05-01T09:01:40.932Z,2.80
2023-05-01T09:02:42.946Z,2.90
2023-05-01T09:03:40.941Z,3.10
2023-05-01T09:04:42.182Z,2.90
2023-05-01T09:05:40.853Z,2.70
2023-05-01T09:06:40.878Z,2.90
2023-05-01T09:07:40.819Z,2.80
2023-05-01T09:08:40.790Z,3.00
2023-05-01T09:09:40.794Z,2.90
2023-05-01T09:10:40.758Z,3.80
2023-05-01T09:11:40.769Z,3.20
2023-05-01T09:12:40.735Z,3.00
2023-05-01T09:13:40.739Z,3.20
2023-05-01T09:14:40.705Z,3.20
2023-05-01T09:15:40.706Z,2.90
2023-05-01T09:16:40.746Z,2.80
2023-05-01T09:17:40.737Z,2.90
2023-05-01T09:18:40.654Z,3.00
2023-05-01T09:19:40.649Z,3.20
2023-05-01T09:20:40.642Z,3.00
2023-05-01T09:21:40.632Z,3.40
2023-05-01T09:22:40.598Z,3.00
2023-05-01T09:23:40.592Z,3.40
2023-05-01T09:24:40.593Z,3.10
2023-05-01T09:25:40.579Z,3.20
2023-05-01T09:26:40.749Z,3.30
2023-05-01T09:27:40.608Z,3.40
2023-05-01T09:28:40.531Z,3.60
2023-05-01T09:29:40.528Z,3.50
2023-05-01T09:30:40.508Z,3.10
2023-05-01T09:31:40.520Z,3.40
2023-05-01T09:32:42.579Z,3.40
2023-05-01T09:33:40.463Z,3.00
2023-05-01T09:34:40.451Z,3.50
2023-05-01T09:35:40.446Z,3.20
2023-05-01T09:36:40.440Z,3.40
2023-05-01T09:37:40.454Z,3.40
2023-05-01T09:38:40.391Z,3.50
2023-05-01T09:39:40.392Z,3.30
2023-05-01T09:40:40.373Z,3.30
2023-05-01T09:41:40.379Z,3.10
2023-05-01T09:42:40.366Z,3.60
2023-05-01T09:43:40.345Z,3.10
2023-05-01T09:44:40.345Z,3.10
2023-05-01T09:45:40.350Z,3.10
2023-05-01T09:46:40.393Z,3.10
2023-05-01T09:47:46.329Z,3.50
2023-05-01T09:48:40.277Z,3.30
2023-05-01T09:49:40.260Z,3.30
2023-05-01T09:50:40.236Z,3.40
2023-05-01T09:51:40.252Z,3.20
2023-05-01T09:52:40.230Z,3.30
2023-05-01T09:53:40.208Z,3.50
2023-05-01T09:54:41.144Z,3.60
2023-05-01T09:55:40.168Z,3.40
2023-05-01T09:56:40.185Z,3.50
2023-05-01T09:57:40.153Z,2.80
2023-05-01T09:58:40.136Z,3.30
2023-05-01T09:59:40.141Z,3.30
2023-05-01T10:00:40.105Z,3.70
2023-05-01T10:01:40.404Z,3.60
2023-05-01T10:02:40.234Z,3.60
2023-05-01T10:03:40.270Z,3.70
2023-05-01T10:04:40.056Z,3.70
2023-05-01T10:05:40.057Z,3.60
2023-05-01T10:06:40.126Z,4.10
2023-05-01T10:07:40.053Z,3.60
2023-05-01T10:08:40.008Z,3.90
2023-05-01T10:09:40.011Z,4.00
2023-05-01T10:10:39.984Z,4.00
2023-05-01T10:11:39.975Z,3.60
2023-05-01T10:12:39.989Z,3.80
2023-05-01T10:13:39.990Z,3.90
2023-05-01T10:14:39.926Z,3.50
2023-05-01T10:15:39.945Z,3.50
2023-05-01T10:16:40.031Z,3.60
2023-05-01T10:17:39.977Z,3.70
2023-05-01T10:18:39.889Z,4.00
2023-05-01T10:19:39.866Z,3.90
2023-05-01T10:20:39.872Z,3.60
2023-05-01T10:21:39.885Z,3.70
2023-05-01T10:22:39.842Z,4.10
2023-05-01T10:23:39.813Z,3.80
2023-05-01T10:24:39.819Z,3.60
2023-05-01T10:25:39.781Z,4.00
2023-05-01T10:26:39.790Z,3.60
2023-05-01T10:27:39.775Z,3.70
2023-05-01T10:28:39.743Z,3.50
2023-05-01T10:29:39.730Z,3.40
2023-05-01T10:30:39.728Z,3.70
2023-05-01T10:31:42.271Z,3.60
2023-05-01T10:32:39.793Z,4.10
2023-05-01T10:33:39.726Z,3.50
2023-05-01T10:34:39.669Z,4.00
2023-05-01T10:35:39.666Z,3.90
2023-05-01T10:36:39.641Z,3.50
2023-05-01T10:37:39.639Z,3.90
2023-05-01T10:38:39.651Z,3.80
2023-05-01T10:39:39.631Z,4.00
2023-05-01T10:40:39.611Z,3.90
2023-05-01T10:41:39.563Z,4.00
2023-05-01T10:42:39.609Z,3.80
2023-05-01T10:43:39.544Z,3.90
2023-05-01T10:44:39.558Z,4.20
2023-05-01T10:45:39.509Z,4.10
2023-05-01T10:46:39.573Z,4.10
2023-05-01T10:47:39.513Z,4.10
2023-05-01T10:48:39.501Z,3.70
2023-05-01T10:49:39.450Z,3.90
2023-05-01T10:50:39.445Z,3.80
2023-05-01T10:51:39.431Z,3.60
2023-05-01T10:52:39.459Z,4.00
2023-05-01T10:53:39.406Z,3.90
2023-05-01T10:54:39.385Z,3.80
2023-05-01T10:55:39.394Z,4.10
2023-05-01T10:56:39.364Z,3.80
2023-05-01T10:57:39.365Z,3.80
2023-05-01T10:58:39.330Z,3.70
2023-05-01T10:59:39.336Z,3.70
2023-05-01T11:00:39.314Z,4.00
2023-05-01T11:01:39.324Z,4.00
2023-05-01T11:02:39.341Z,4.30
2023-05-01T11:03:39.278Z,3.90
2023-05-01T11:04:39.267Z,3.90
2023-05-01T11:05:39.268Z,4.10
2023-05-01T11:06:39.390Z,3.70
2023-05-01T11:07:39.237Z,4.10
2023-05-01T11:08:39.228Z,3.80
2023-05-01T11:09:39.214Z,4.10
2023-05-01T11:10:39.195Z,4.10
2023-05-01T11:11:39.195Z,4.00
2023-05-01T11:12:39.169Z,3.70
2023-05-01T11:13:39.163Z,3.80
2023-05-01T11:14:39.137Z,3.80
2023-05-01T11:15:39.119Z,4.10
2023-05-01T11:16:39.196Z,3.70
2023-05-01T11:17:39.161Z,3.70
2023-05-01T11:18:39.105Z,3.80
2023-05-01T11:19:39.060Z,3.50
2023-05-01T11:20:39.058Z,4.30
2023-05-01T11:21:39.089Z,4.40
2023-05-01T11:22:39.022Z,3.80
2023-05-01T11:23:39.026Z,4.00
2023-05-01T11:24:39.018Z,4.10
2023-05-01T11:25:38.984Z,3.70
2023-05-01T11:26:39.009Z,4.00
2023-05-01T11:27:38.991Z,4.10
2023-05-01T11:28:38.972Z,4.20
2023-05-01T11:29:38.939Z,3.90
2023-05-01T11:30:38.939Z,4.20
2023-05-01T11:31:38.948Z,4.00
2023-05-01T11:32:38.915Z,4.20
2023-05-01T11:33:38.896Z,3.90
2023-05-01T11:34:38.874Z,3.90
2023-05-01T11:35:39.020Z,4.10
2023-05-01T11:36:38.837Z,3.90
2023-05-01T11:37:38.843Z,4.00
2023-05-01T11:38:38.873Z,4.00
2023-05-01T11:39:38.800Z,4.00
2023-05-01T11:40:38.796Z,3.90
2023-05-01T11:41:38.761Z,4.00
2023-05-01T11:42:38.822Z,4.00
2023-05-01T11:43:38.771Z,3.80
2023-05-01T11:44:38.737Z,3.60
2023-05-01T11:45:38.754Z,3.80
2023-05-01T11:46:38.713Z,3.80
2023-05-01T11:47:38.729Z,4.20
2023-05-01T11:48:38.721Z,4.10
2023-05-01T11:49:38.682Z,3.40
2023-05-01T11:50:38.657Z,3.50
2023-05-01T11:51:38.655Z,3.40
2023-05-01T11:52:38.634Z,3.80
2023-05-01T11:53:38.661Z,3.70
2023-05-01T11:54:38.599Z,3.40
2023-05-01T11:55:38.607Z,3.60
2023-05-01T11:56:38.593Z,2.80
2023-05-01T11:57:38.548Z,3.20
2023-05-01T11:58:38.565Z,3.20
2023-05-01T11:59:38.533Z,3.50
2023-05-01T12:00:38.532Z,3.10
2023-05-01T12:01:38.561Z,3.30
2023-05-01T12:02:38.686Z,3.30
2023-05-01T12:03:38.570Z,3.00
2023-05-01T12:04:38.484Z,3.00
2023-05-01T12:05:38.453Z,2.70
2023-05-01T12:06:38.497Z,2.70
2023-05-01T12:07:38.469Z,2.30
2023-05-01T12:08:38.437Z,2.80
2023-05-01T12:09:38.415Z,2.90
2023-05-01T12:10:38.386Z,2.90
2023-05-01T12:11:38.385Z,3.30
2023-05-01T12:12:38.373Z,2.70
2023-05-01T12:13:38.359Z,2.80
2023-05-01T12:14:38.350Z,2.80
2023-05-01T12:15:38.328Z,2.80
2023-05-01T12:16:38.385Z,3.00
2023-05-01T12:17:38.330Z,3.50
2023-05-01T12:18:38.313Z,3.00
2023-05-01T12:19:38.266Z,3.20
2023-05-01T12:20:38.257Z,3.70
2023-05-01T12:21:38.257Z,3.20
2023-05-01T12:22:38.275Z,3.20
2023-05-01T12:23:38.226Z,3.90
2023-05-01T12:24:38.208Z,3.40
2023-05-01T12:25:38.190Z,3.50
2023-05-01T12:26:38.172Z,2.90
2023-05-01T12:27:38.180Z,3.60
2023-05-01T12:28:38.147Z,3.70
2023-05-01T12:29:38.133Z,3.80
2023-05-01T12:30:38.126Z,3.70
2023-05-01T12:31:38.116Z,3.80
2023-05-01T12:32:38.195Z,4.00
2023-05-01T12:33:38.079Z,3.80
2023-05-01T12:34:38.068Z,4.20
2023-05-01T12:35:38.049Z,4.20
2023-05-01T12:36:38.053Z,3.90
2023-05-01T12:37:38.057Z,4.60
2023-05-01T12:38:38.014Z,4.40
2023-05-01T12:39:37.997Z,4.20
2023-05-01T12:40:37.978Z,4.20
2023-05-01T12:41:37.980Z,4.50
2023-05-01T12:42:37.984Z,4.20
2023-05-01T12:43:37.953Z,4.60
2023-05-01T12:44:37.930Z,4.20
2023-05-01T12:45:37.922Z,4.60
2023-05-01T12:46:37.923Z,4.70
2023-05-01T12:47:38.096Z,4.70
2023-05-01T12:48:37.895Z,4.20
2023-05-01T12:49:37.874Z,4.50
2023-05-01T12:50:37.861Z,4.20
2023-05-01T12:51:37.835Z,4.90
2023-05-01T12:52:37.836Z,4.20
2023-05-01T12:53:37.813Z,4.40
2023-05-01T12:54:37.819Z,4.60
2023-05-01T12:55:37.783Z,4.60
2023-05-01T12:56:37.782Z,4.30
2023-05-01T12:57:37.750Z,5.40
2023-05-01T12:58:37.926Z,4.70
2023-05-01T12:59:37.736Z,4.40
2023-05-01T13:00:37.728Z,4.70
2023-05-01T13:01:37.796Z,4.60
2023-05-01T13:02:37.734Z,4.60
2023-05-01T13:03:40.679Z,4.40
2023-05-01T13:04:37.674Z,4.40
2023-05-01T13:05:37.648Z,4.30
2023-05-01T13:06:37.671Z,4.50
2023-05-01T13:07:37.680Z,4.50
2023-05-01T13:08:37.624Z,4.80
2023-05-01T13:09:37.603Z,4.50
2023-05-01T13:10:37.598Z,4.80
2023-05-01T13:11:37.565Z,4.50
2023-05-01T13:12:37.589Z,4.20
2023-05-01T13:13:37.710Z,4.70
2023-05-01T13:14:37.533Z,4.10
2023-05-01T13:15:37.516Z,4.40
2023-05-01T13:16:37.522Z,4.80